Time;durP1;ratioP1;P1;durP2;ratioP2;P2;SDS_P1;SDS_P2;PMS_P1;PMS_P2;Temp;Humidity;BMP_temperature;BMP_pressure;BME280_temperature;BME280_humidity;BME280_pressure;Samples;Min_cycle;Max_cycle;Signal;HPM_P1;HPM_P2
2021/10/29 00:00:04;;;;;;;23.57;15.38;;;;;;;8.23;100.00;101184.06;1722559;82;21069;-80
2021/10/29 00:02:31;;;;;;;26.90;15.53;;;;;;;8.19;100.00;101181.06;1750207;82;21174;-78
2021/10/29 00:04:58;;;;;;;23.45;14.87;;;;;;;8.15;100.00;101181.97;1750045;82;21442;-80
2021/10/29 00:07:25;;;;;;;42.30;27.42;;;;;;;8.06;100.00;101178.12;1749973;82;21073;-80
2021/10/29 00:09:53;;;;;;;24.43;15.10;;;;;;;8.03;100.00;101181.66;1749705;82;21077;-80
2021/10/29 00:12:22;;;;;;;22.50;15.58;;;;;;;8.02;100.00;101178.59;1724746;82;21061;-81
2021/10/29 00:14:50;;;;;;;15.23;9.55;;;;;;;8.01;100.00;101181.25;1750411;82;21158;-88
2021/10/29 00:17:17;;;;;;;18.23;10.65;;;;;;;8.02;100.00;101187.77;1750743;82;21053;-87
2021/10/29 00:19:44;;;;;;;19.85;12.05;;;;;;;8.06;100.00;101189.48;1750811;82;21627;-88
2021/10/29 00:22:10;;;;;;;18.48;11.38;;;;;;;8.10;100.00;101183.33;1730272;82;21108;-86
2021/10/29 00:24:37;;;;;;;20.68;12.68;;;;;;;8.16;100.00;101185.01;1701338;84;21070;-82
2021/10/29 00:27:04;;;;;;;26.37;16.37;;;;;;;8.20;100.00;101179.72;1700130;84;21503;-85
2021/10/29 00:29:31;;;;;;;17.10;10.23;;;;;;;8.26;100.00;101179.22;1700204;84;21075;-84
2021/10/29 00:31:57;;;;;;;26.07;16.10;;;;;;;8.31;100.00;101182.69;1699902;83;21110;-83
2021/10/29 00:34:24;;;;;;;29.18;16.40;;;;;;;8.34;100.00;101184.81;1699680;84;21629;-83
2021/10/29 00:36:51;;;;;;;27.17;17.20;;;;;;;8.39;100.00;101186.08;1699617;84;21588;-83
2021/10/29 00:39:19;;;;;;;29.90;16.70;;;;;;;8.42;100.00;101183.89;1699446;84;21546;-83
2021/10/29 00:41:46;;;;;;;29.45;15.95;;;;;;;8.46;100.00;101184.28;1699328;82;21028;-84
2021/10/29 00:44:13;;;;;;;28.90;16.15;;;;;;;8.50;100.00;101186.86;1699664;84;21608;-84
2021/10/29 00:46:40;;;;;;;25.85;16.00;;;;;;;8.56;100.00;101191.19;1700032;84;21062;-84
2021/10/29 00:49:06;;;;;;;31.15;16.17;;;;;;;8.61;100.00;101191.55;1699412;84;21088;-84
2021/10/29 00:51:33;;;;;;;28.67;17.00;;;;;;;8.66;100.00;101193.25;1699488;83;21601;-84
2021/10/29 00:53:59;;;;;;;26.30;16.12;;;;;;;8.70;100.00;101192.33;1696225;84;21057;-83
2021/10/29 00:56:26;;;;;;;29.42;16.67;;;;;;;8.72;100.00;101193.16;1696693;84;20970;-84
2021/10/29 00:58:52;;;;;;;27.25;16.32;;;;;;;8.64;100.00;101171.39;1696140;84;21045;-83
2021/10/29 01:01:19;;;;;;;25.48;16.07;;;;;;;8.81;100.00;101195.25;1681112;85;21163;-84
2021/10/29 01:03:45;;;;;;;24.23;15.93;;;;;;;8.85;100.00;101186.87;1743154;80;21452;-84
2021/10/29 01:06:12;;;;;;;27.25;16.85;;;;;;;8.89;100.00;101187.26;1778738;80;21021;-85
2021/10/29 01:08:40;;;;;;;31.60;16.60;;;;;;;8.91;100.00;101184.17;1778716;80;21136;-81
2021/10/29 01:11:12;;;;;;;25.45;14.05;;;;;;;8.92;100.00;101188.52;1779042;80;21083;-83
2021/10/29 01:13:38;;;;;;;20.15;14.13;;;;;;;8.91;100.00;101181.54;1778105;80;21490;-83
2021/10/29 01:16:06;;;;;;;26.00;15.13;;;;;;;8.92;100.00;101180.64;1778870;80;21486;-81
2021/10/29 01:18:33;;;;;;;27.93;14.63;;;;;;;8.95;100.00;101176.68;1778703;80;21480;-82
2021/10/29 01:20:59;;;;;;;23.70;14.50;;;;;;;8.97;100.00;101181.47;1778467;80;21148;-81
2021/10/29 01:23:26;;;;;;;20.12;13.35;;;;;;;9.00;100.00;101178.79;1778526;80;21104;-84
2021/10/29 01:26:04;;;;;;;22.82;15.18;;;;;;;9.02;100.00;101171.76;1778885;80;21745;-83
2021/10/29 01:28:30;;;;;;;26.20;14.75;;;;;;;9.07;100.00;101176.09;1778817;80;21146;-86
2021/10/29 01:30:58;;;;;;;22.65;15.40;;;;;;;9.09;100.00;101187.41;1750929;80;21056;-86
2021/10/29 01:33:25;;;;;;;24.20;14.70;;;;;;;9.07;100.00;101178.72;1748232;82;21810;-85
2021/10/29 01:35:51;;;;;;;20.72;14.07;;;;;;;9.10;100.00;101179.97;1748685;82;21001;-85
2021/10/29 01:38:18;;;;;;;24.18;15.45;;;;;;;9.12;100.00;101180.83;1749407;82;20994;-87
2021/10/29 01:40:44;;;;;;;21.77;14.07;;;;;;;9.12;100.00;101180.38;1750301;82;21111;-85
2021/10/29 01:43:11;;;;;;;26.27;14.95;;;;;;;9.12;100.00;101176.88;1749711;82;21052;-83
2021/10/29 01:45:38;;;;;;;22.30;14.70;;;;;;;9.10;100.00;101181.28;1749478;82;21554;-85
2021/10/29 01:48:05;;;;;;;24.67;14.73;;;;;;;9.05;100.00;101177.41;1749950;82;21024;-86
2021/10/29 01:50:31;;;;;;;22.50;14.20;;;;;;;8.99;100.00;101182.28;1749994;82;21037;-83
2021/10/29 01:52:58;;;;;;;22.05;14.05;;;;;;;8.96;100.00;101181.48;1749310;82;21086;-82
2021/10/29 01:55:25;;;;;;;25.80;15.10;;;;;;;8.94;100.00;101185.43;1750969;82;21006;-86
2021/10/29 01:57:52;;;;;;;29.67;16.50;;;;;;;8.92;100.00;101185.89;1751177;82;21131;-84
2021/10/29 02:00:18;;;;;;;27.98;17.27;;;;;;;8.93;100.00;101187.65;1751777;82;21061;-84
2021/10/29 02:02:44;;;;;;;27.35;17.07;;;;;;;8.96;100.00;101186.28;1753023;80;21068;-82
2021/10/29 02:05:11;;;;;;;26.05;16.27;;;;;;;8.97;100.00;101189.35;1780421;80;21112;-82
2021/10/29 02:07:38;;;;;;;24.47;16.15;;;;;;;8.95;100.00;101186.29;1780217;80;21001;-83
2021/10/29 02:10:06;;;;;;;27.02;16.27;;;;;;;8.94;100.00;101193.31;1778983;80;21037;-83
2021/10/29 02:12:33;;;;;;;22.60;14.58;;;;;;;8.90;100.00;101192.92;1778985;80;21005;-82
2021/10/29 02:14:59;;;;;;;27.65;15.45;;;;;;;8.88;100.00;101196.05;1780631;80;21084;-85
2021/10/29 02:17:26;;;;;;;22.55;14.90;;;;;;;8.85;100.00;101202.63;1781040;80;21126;-86
2021/10/29 02:19:52;;;;;;;25.45;15.38;;;;;;;8.80;100.00;101195.26;1779325;80;21041;-83
2021/10/29 02:22:19;;;;;;;21.48;14.85;;;;;;;8.76;100.00;101198.35;1778538;80;21555;-80
2021/10/29 02:24:45;;;;;;;28.62;13.90;;;;;;;8.73;100.00;101201.48;1778157;80;21634;-81
2021/10/29 02:27:13;;;;;;;21.48;13.48;;;;;;;8.68;100.00;101205.92;1778435;80;21001;-78
2021/10/29 02:29:39;;;;;;;22.05;13.35;;;;;;;8.60;100.00;101201.64;1778170;80;21027;-81
2021/10/29 02:32:06;;;;;;;22.00;14.63;;;;;;;8.54;100.00;101210.02;1778291;80;21694;-81
2021/10/29 02:34:33;;;;;;;20.60;13.75;;;;;;;8.47;100.00;101215.78;1778634;80;21080;-81
2021/10/29 02:36:59;;;;;;;20.72;13.83;;;;;;;8.42;100.00;101217.59;1778646;80;21077;-82
2021/10/29 02:39:27;;;;;;;23.40;14.33;;;;;;;8.35;100.00;101214.55;1778635;80;21017;-81
2021/10/29 02:41:53;;;;;;;21.48;12.93;;;;;;;8.29;100.00;101214.63;1778602;80;21501;-81
2021/10/29 02:44:19;;;;;;;24.75;15.48;;;;;;;8.24;100.00;101218.62;1778581;80;21037;-83
2021/10/29 02:46:46;;;;;;;23.60;13.68;;;;;;;8.20;100.00;101224.33;1778594;80;21511;-82
2021/10/29 02:49:13;;;;;;;20.55;12.68;;;;;;;8.18;100.00;101215.59;1779017;80;21084;-82
2021/10/29 02:51:39;;;;;;;21.27;14.45;;;;;;;8.17;100.00;101221.73;1778629;80;21020;-83
2021/10/29 02:54:06;;;;;;;20.50;12.23;;;;;;;8.15;100.00;101210.39;1778842;80;21526;-83
2021/10/29 02:56:32;;;;;;;15.25;9.90;;;;;;;8.14;100.00;101212.59;1778539;80;21424;-81
2021/10/29 02:58:59;;;;;;;18.98;12.82;;;;;;;8.13;100.00;101216.09;1779265;80;21619;-80
2021/10/29 03:01:25;;;;;;;25.05;15.78;;;;;;;8.11;100.00;101215.23;1778676;80;21033;-82
2021/10/29 03:03:53;;;;;;;21.55;15.23;;;;;;;8.09;100.00;101216.99;1778158;80;21033;-78
2021/10/29 03:06:20;;;;;;;22.07;14.15;;;;;;;8.03;100.00;101214.45;1778148;80;21960;-79
2021/10/29 03:08:46;;;;;;;25.70;14.28;;;;;;;7.97;100.00;101213.19;1778428;80;21634;-83
2021/10/29 03:11:13;;;;;;;22.45;14.07;;;;;;;7.91;100.00;101216.75;1778632;80;21044;-83
2021/10/29 03:13:40;;;;;;;21.52;13.53;;;;;;;7.87;100.00;101214.16;1779031;80;21072;-84
2021/10/29 03:16:07;;;;;;;22.22;14.07;;;;;;;7.81;100.00;101216.83;1761184;80;21060;-86
2021/10/29 03:18:33;;;;;;;22.42;13.90;;;;;;;7.72;100.00;101204.20;1749111;82;21510;-86
2021/10/29 03:20:59;;;;;;;24.35;14.58;;;;;;;7.65;100.00;101210.83;1749152;82;21041;-84
2021/10/29 03:23:26;;;;;;;22.15;13.78;;;;;;;7.58;100.00;101216.55;1748757;82;21131;-86
2021/10/29 03:25:52;;;;;;;21.70;12.98;;;;;;;7.48;100.00;101211.83;1750858;81;21055;-86
2021/10/29 03:28:19;;;;;;;16.82;11.15;;;;;;;7.42;100.00;101213.62;1756017;81;21334;-83
2021/10/29 03:30:45;;;;;;;20.97;11.55;;;;;;;7.34;100.00;101209.30;1758300;81;21120;-84
2021/10/29 03:33:12;;;;;;;16.42;11.85;;;;;;;7.27;100.00;101211.95;1758242;78;21001;-81
2021/10/29 03:35:39;;;;;;;13.32;8.93;;;;;;;7.18;100.00;101215.93;1758367;78;21020;-84
2021/10/29 03:40:44;;;;;;;12.25;8.38;;;;;;;7.05;100.00;101226.94;1758621;79;20946;-83
2021/10/29 03:45:59;;;;;;;25.92;14.80;;;;;;;6.92;100.00;101236.17;1762043;80;21052;-74
2021/10/29 03:49:14;;;;;;;25.00;14.60;;;;;;;6.85;100.00;101239.66;1764392;80;21041;-74
2021/10/29 03:51:12;;;;;;;27.70;14.68;;;;;;;6.77;100.00;101236.22;1738010;80;21571;-71
2021/10/29 03:56:11;;;;;;;25.20;14.60;;;;;;;6.69;100.00;101244.52;1764404;80;21139;-70
2021/10/29 03:58:35;;;;;;;23.92;14.18;;;;;;;6.63;100.00;101247.18;1772312;80;21100;-68
2021/10/29 04:01:02;;;;;;;17.92;11.18;;;;;;;6.58;100.00;101241.95;1775984;80;21575;-71
2021/10/29 04:03:28;;;;;;;23.87;13.50;;;;;;;6.55;100.00;101243.70;1784704;80;21626;-71
2021/10/29 04:05:54;;;;;;;16.42;8.95;;;;;;;6.48;100.00;101241.09;1753966;80;21087;-70
2021/10/29 04:08:21;;;;;;;19.02;12.30;;;;;;;6.41;100.00;101243.28;1751803;80;21116;-72
2021/10/29 04:10:49;;;;;;;23.92;10.18;;;;;;;6.37;100.00;101247.22;1770992;80;21009;-70
2021/10/29 04:13:16;;;;;;;16.20;10.82;;;;;;;6.30;100.00;101245.95;1776293;80;21084;-70
2021/10/29 04:15:43;;;;;;;25.72;14.55;;;;;;;6.23;100.00;101248.55;1758686;80;21068;-71
2021/10/29 04:18:09;;;;;;;22.90;14.58;;;;;;;6.17;100.00;101253.81;1752199;81;21103;-70
2021/10/29 04:20:37;;;;;;;21.15;13.65;;;;;;;6.09;100.00;101249.42;1760301;80;21514;-70
2021/10/29 04:23:04;;;;;;;25.05;16.12;;;;;;;6.03;100.00;101255.13;1783881;80;21500;-71
2021/10/29 04:25:31;;;;;;;26.62;16.95;;;;;;;5.96;100.00;101256.87;1782831;80;21028;-70
2021/10/29 04:27:59;;;;;;;30.20;16.70;;;;;;;5.90;100.00;101262.05;1778168;80;21338;-70
2021/10/29 04:30:28;;;;;;;28.80;17.12;;;;;;;5.86;100.00;101257.25;1778234;80;21072;-72
2021/10/29 04:32:58;;;;;;;39.18;20.70;;;;;;;5.81;100.00;101264.66;1777841;80;21129;-71
2021/10/29 04:35:25;;;;;;;34.58;17.87;;;;;;;5.76;100.00;101261.18;1778176;80;21005;-70
2021/10/29 04:37:52;;;;;;;27.98;16.15;;;;;;;5.70;100.00;101259.41;1772491;80;21488;-70
2021/10/29 04:40:19;;;;;;;29.98;16.82;;;;;;;5.66;100.00;101270.32;1748297;80;21016;-70
2021/10/29 04:42:45;;;;;;;33.70;17.20;;;;;;;5.61;100.00;101268.14;1759050;80;21150;-70
2021/10/29 04:45:12;;;;;;;29.63;16.52;;;;;;;5.57;100.00;101271.61;1778990;80;21057;-71
2021/10/29 04:47:38;;;;;;;29.12;16.02;;;;;;;5.55;100.00;101272.48;1753490;80;21055;-72
2021/10/29 04:50:07;;;;;;;20.50;11.22;;;;;;;5.53;100.00;101276.83;1747978;80;22315;-70
2021/10/29 04:52:34;;;;;;;29.40;16.10;;;;;;;5.51;100.00;101278.13;1747521;80;21115;-70
2021/10/29 04:55:00;;;;;;;30.68;16.70;;;;;;;5.50;100.00;101285.54;1737708;80;21071;-68
2021/10/29 04:57:27;;;;;;;26.20;14.35;;;;;;;5.48;100.00;101283.35;1738064;80;21854;-70
2021/10/29 04:59:53;;;;;;;35.90;16.27;;;;;;;5.45;100.00;101282.02;1770850;80;21560;-69
2021/10/29 05:02:21;;;;;;;21.42;13.22;;;;;;;5.43;100.00;101289.00;1747632;80;21024;-69
2021/10/29 05:04:47;;;;;;;30.77;15.32;;;;;;;5.41;100.00;101286.82;1747703;80;21093;-70
2021/10/29 05:07:13;;;;;;;19.52;11.93;;;;;;;5.39;100.00;101289.86;1763801;80;21044;-71
2021/10/29 05:09:40;;;;;;;22.77;13.55;;;;;;;5.39;100.00;101292.47;1746686;82;21087;-71
2021/10/29 05:12:07;;;;;;;24.65;15.48;;;;;;;5.38;100.00;101289.41;1746462;82;21092;-70
2021/10/29 05:14:34;;;;;;;27.42;16.10;;;;;;;5.40;100.00;101293.76;1747115;82;20994;-70
2021/10/29 05:17:02;;;;;;;27.10;16.25;;;;;;;5.39;100.00;101285.94;1755888;80;21029;-70
2021/10/29 05:19:28;;;;;;;32.67;16.57;;;;;;;5.42;100.00;101290.72;1682976;83;21093;-71
2021/10/29 05:21:55;;;;;;;29.00;16.00;;;;;;;5.45;100.00;101297.69;1690461;83;21800;-70
2021/10/29 05:24:21;;;;;;;34.00;16.75;;;;;;;5.49;100.00;101299.45;1758729;80;21582;-72
2021/10/29 05:26:47;;;;;;;35.55;18.17;;;;;;;5.53;100.00;101301.21;1755126;80;21044;-70
2021/10/29 05:29:14;;;;;;;38.65;18.62;;;;;;;5.57;100.00;101307.33;1757814;80;21080;-72
2021/10/29 05:31:42;;;;;;;29.05;17.20;;;;;;;5.63;100.00;101305.58;1757439;80;21008;-71
2021/10/29 05:34:08;;;;;;;51.73;21.07;;;;;;;5.70;100.00;101306.91;1766900;80;21017;-71
2021/10/29 05:36:36;;;;;;;39.23;19.80;;;;;;;5.79;100.00;101315.63;1760534;80;21061;-70
2021/10/29 05:39:05;;;;;;;56.70;20.23;;;;;;;5.88;100.00;101312.16;1772053;80;22115;-71
2021/10/29 05:41:32;;;;;;;48.68;18.45;;;;;;;5.98;100.00;101310.05;1756764;80;21084;-70
2021/10/29 05:44:00;;;;;;;66.67;21.82;;;;;;;6.09;100.00;101310.02;1707754;83;21085;-70
2021/10/29 05:46:30;;;;;;;86.28;29.50;;;;;;;6.24;100.00;101312.65;1691617;83;21143;-71
2021/10/29 05:48:55;;;;;;;72.53;24.55;;;;;;;6.40;100.00;101322.67;1699984;83;21588;-70
2021/10/29 05:51:22;;;;;;;86.67;29.82;;;;;;;6.59;100.00;101321.34;1699545;83;21148;-70
2021/10/29 05:56:17;;;;;;;107.05;32.05;;;;;;;6.93;100.00;101326.94;1707353;83;21069;-71
2021/10/29 05:58:44;;;;;;;89.40;29.37;;;;;;;7.14;100.00;101328.61;1712524;83;21109;-71
2021/10/29 06:01:11;;;;;;;100.65;31.00;;;;;;;7.37;100.00;101331.58;1712530;83;21065;-71
2021/10/29 06:03:38;;;;;;;92.78;30.80;;;;;;;7.63;100.00;101332.74;1699926;83;21051;-73
2021/10/29 06:06:05;;;;;;;82.05;30.27;;;;;;;7.88;100.00;101336.53;1707644;83;21046;-72
2021/10/29 06:08:32;;;;;;;83.25;32.08;;;;;;;8.18;100.00;101334.98;1713181;82;20998;-72
2021/10/29 06:10:59;;;;;;;85.62;31.93;;;;;;;8.55;100.00;101336.02;1699418;83;21531;-75
2021/10/29 06:13:27;;;;;;;81.55;33.80;;;;;;;8.85;100.00;101335.28;1713184;83;21053;-74
2021/10/29 06:15:54;;;;;;;75.28;33.08;;;;;;;9.19;100.00;101339.72;1717263;82;21054;-72
2021/10/29 06:18:26;;;;;;;67.03;33.75;;;;;;;9.51;100.00;101340.22;1701806;83;21637;-72
2021/10/29 06:20:54;;;;;;;78.17;35.20;;;;;;;9.72;100.00;101334.64;1723956;82;21084;-72
2021/10/29 06:23:25;;;;;;;66.47;31.73;;;;;;;9.83;100.00;101332.73;1717769;83;21201;-72
2021/10/29 06:25:49;;;;;;;81.92;36.48;;;;;;;9.88;100.00;101333.52;1704964;81;21668;-71
2021/10/29 06:28:28;;;;;;;70.47;35.25;;;;;;;9.84;100.00;101339.72;1700831;81;22207;-72
2021/10/29 06:30:54;;;;;;;81.82;38.23;;;;;;;9.71;100.00;101347.81;1699101;83;21142;-75
2021/10/29 06:33:23;;;;;;;61.23;32.48;;;;;;;9.68;100.00;101344.78;1715227;83;21072;-70
2021/10/29 06:35:50;;;;;;;65.05;33.38;;;;;;;9.65;100.00;101347.46;1719366;81;21135;-73
2021/10/29 06:38:18;;;;;;;75.22;36.35;;;;;;;9.69;100.00;101346.54;1700841;83;21494;-73
2021/10/29 06:40:46;;;;;;;73.45;36.77;;;;;;;9.72;100.00;101354.38;1698343;84;21083;-71
2021/10/29 06:43:25;;;;;;;74.67;33.98;;;;;;;9.78;100.00;101352.98;1706535;81;21036;-72
2021/10/29 06:48:49;;;;;;;71.95;39.00;;;;;;;9.90;100.00;101352.39;1703174;83;21196;-73
2021/10/29 07:40:02;;;;;;;60.20;31.52;;;;;;;13.88;92.33;101373.80;1719857;83;21053;-76
2021/10/29 07:42:32;;;;;;;53.55;31.15;;;;;;;13.97;90.63;101371.73;1719721;82;21958;-77
2021/10/29 07:44:57;;;;;;;58.25;30.68;;;;;;;14.19;90.25;101365.73;1719519;83;21068;-77
2021/10/29 07:47:23;;;;;;;41.68;26.77;;;;;;;14.48;88.82;101368.30;1719714;83;21030;-77
2021/10/29 07:49:50;;;;;;;44.20;26.87;;;;;;;14.81;86.46;101371.20;1718899;83;21153;-78
2021/10/29 07:52:16;;;;;;;39.73;23.67;;;;;;;15.43;86.15;101379.14;1720690;83;21097;-77
2021/10/29 07:54:45;;;;;;;39.67;22.42;;;;;;;16.33;83.03;101366.78;1721476;83;21051;-78
2021/10/29 07:57:13;;;;;;;32.75;20.92;;;;;;;17.17;80.55;101368.52;1721940;83;21041;-79
2021/10/29 07:59:40;;;;;;;21.65;16.75;;;;;;;17.67;75.72;101365.80;1721443;83;21081;-78
2021/10/29 08:02:06;;;;;;;26.95;16.87;;;;;;;18.00;73.86;101367.34;1720638;83;21026;-77
2021/10/29 08:04:34;;;;;;;24.07;16.35;;;;;;;18.54;72.28;101356.70;1720080;83;21081;-77
2021/10/29 08:07:00;;;;;;;27.58;17.25;;;;;;;19.27;68.75;101363.15;1720798;83;21156;-78
2021/10/29 08:09:27;;;;;;;24.07;16.40;;;;;;;19.94;66.30;101361.73;1720098;83;21124;-77
2021/10/29 08:11:54;;;;;;;22.90;14.90;;;;;;;20.55;64.07;101362.20;1719761;83;21610;-77
2021/10/29 08:14:25;;;;;;;22.52;15.25;;;;;;;20.75;60.34;101362.36;1719944;83;21037;-78
2021/10/29 08:16:52;;;;;;;18.60;11.30;;;;;;;20.58;60.25;101370.07;1720182;82;21062;-81
2021/10/29 08:19:27;;;;;;;20.92;15.23;;;;;;;20.65;58.04;101359.37;1719877;83;21126;-78
2021/10/29 08:21:47;;;;;;;17.80;12.68;;;;;;;20.39;58.99;101368.93;1718015;83;21133;-77
2021/10/29 08:24:13;;;;;;;20.88;14.70;;;;;;;20.04;59.78;101370.98;1720326;83;21631;-79
2021/10/29 08:26:40;;;;;;;18.62;14.90;;;;;;;19.98;60.70;101374.84;1720256;82;21499;-79
2021/10/29 08:29:06;;;;;;;17.87;13.50;;;;;;;20.37;60.02;101375.33;1720271;83;21176;-78
2021/10/29 08:31:34;;;;;;;38.23;16.85;;;;;;;20.78;59.41;101376.06;1720149;83;21447;-78
2021/10/29 08:34:01;;;;;;;24.47;16.60;;;;;;;21.35;56.55;101374.80;1736509;82;21089;-78
2021/10/29 08:36:29;;;;;;;19.90;13.18;;;;;;;21.70;55.59;101367.70;1750097;82;21053;-80
2021/10/29 08:41:16;;;;;;;14.28;10.82;;;;;;;22.32;53.78;101362.75;1813814;79;22552;-77
2021/10/29 08:43:42;;;;;;;14.90;10.20;;;;;;;22.70;51.42;101365.99;1787109;80;21029;-79
2021/10/29 08:46:09;;;;;;;17.82;11.88;;;;;;;22.71;50.96;101367.73;1787009;80;21099;-78
2021/10/29 08:48:37;;;;;;;15.10;12.78;;;;;;;22.70;50.57;101368.67;1756400;80;21089;-76
2021/10/29 08:51:04;;;;;;;17.17;12.78;;;;;;;22.52;50.78;101365.45;1787016;80;21065;-78
2021/10/29 08:53:32;;;;;;;18.73;12.58;;;;;;;22.53;50.74;101366.30;1786339;80;21377;-79
2021/10/29 08:56:02;;;;;;;27.65;12.13;;;;;;;22.77;50.46;101372.66;1787118;80;21131;-79
2021/10/29 08:58:30;;;;;;;23.87;13.78;;;;;;;23.07;49.54;101368.84;1786664;80;21128;-78
2021/10/29 09:01:02;;;;;;;21.20;13.45;;;;;;;23.16;47.54;101360.63;1786781;80;21331;-79
2021/10/29 09:03:39;;;;;;;15.45;12.43;;;;;;;22.98;47.64;101362.28;1786781;80;21495;-77
2021/10/29 09:06:20;;;;;;;15.93;13.62;;;;;;;22.91;48.41;101363.65;1750755;81;21112;-78
2021/10/29 09:09:00;;;;;;;19.73;12.95;;;;;;;23.42;47.84;101358.31;1748613;81;21037;-79
2021/10/29 09:17:08;;;;;;;16.70;11.97;;;;;;;24.97;40.70;101359.34;1724108;83;21078;-79
2021/10/29 09:34:13;;;;;;;16.77;10.98;;;;;;;27.04;36.09;101335.99;1714645;83;21046;-80
2021/10/29 09:36:46;;;;;;;18.42;12.45;;;;;;;27.09;35.07;101341.00;1707146;81;21659;-78
2021/10/29 09:39:20;;;;;;;19.82;12.00;;;;;;;27.13;35.35;101331.63;1707177;82;21679;-78
2021/10/29 09:42:06;;;;;;;15.63;10.38;;;;;;;27.33;34.36;101336.16;1685024;83;21090;-80
2021/10/29 09:44:53;;;;;;;16.97;10.30;;;;;;;27.31;34.71;101339.50;1687773;84;21043;-78
2021/10/29 09:47:24;;;;;;;16.00;10.88;;;;;;;27.49;34.02;101340.18;1761548;80;21070;-78
2021/10/29 09:50:36;;;;;;;16.87;10.68;;;;;;;27.16;33.68;101331.34;1749602;80;21097;-80
2021/10/29 09:52:35;;;;;;;22.58;12.50;;;;;;;27.06;33.64;101335.87;1720351;80;22169;-79
2021/10/29 09:57:19;;;;;;;20.10;12.73;;;;;;;26.48;34.45;101334.95;1759796;80;21076;-72
2021/10/29 09:59:46;;;;;;;22.48;12.37;;;;;;;26.50;34.98;101332.52;1742067;82;21052;-72
2021/10/29 10:02:23;;;;;;;28.50;12.50;;;;;;;26.77;34.49;101335.20;1758453;80;21302;-72
2021/10/29 10:04:52;;;;;;;19.23;13.60;;;;;;;27.02;34.11;101329.01;1771972;80;21771;-71
2021/10/29 10:07:25;;;;;;;22.67;14.07;;;;;;;27.11;33.43;101332.26;1768957;80;21525;-74
2021/10/29 10:09:54;;;;;;;18.90;13.88;;;;;;;26.83;33.22;101331.97;1766232;80;21029;-71
2021/10/29 10:12:22;;;;;;;25.15;15.75;;;;;;;26.85;33.85;101323.70;1760546;80;21583;-73
2021/10/29 10:14:53;;;;;;;20.75;13.68;;;;;;;26.67;33.53;101331.59;1749007;80;20993;-72
2021/10/29 10:17:21;;;;;;;20.40;14.53;;;;;;;26.09;35.09;101336.86;1757814;80;21094;-74
2021/10/29 10:19:50;;;;;;;19.77;14.00;;;;;;;25.38;35.40;101339.56;1752220;80;21030;-72
2021/10/29 10:22:19;;;;;;;22.00;15.08;;;;;;;24.80;37.03;101340.47;1753302;80;22213;-73
2021/10/29 10:24:53;;;;;;;22.75;13.98;;;;;;;24.06;38.25;101343.36;1742097;82;21077;-73
2021/10/29 10:30:24;;;;;;;24.47;16.87;;;;;;;22.58;40.48;101338.16;1744907;80;21531;-72
2021/10/29 10:43:37;;;;;;;31.37;18.87;;;;;;;20.20;46.27;101347.75;1765029;80;21274;-74
2021/10/29 10:46:09;;;;;;;34.75;16.75;;;;;;;20.05;46.83;101348.63;1749559;80;21688;-72
2021/10/29 10:49:06;;;;;;;23.32;14.13;;;;;;;19.81;47.10;101346.89;1749755;82;21056;-73
2021/10/29 10:57:11;;;;;;;20.62;14.07;;;;;;;19.76;47.50;101347.14;1769203;80;21138;-75
2021/10/29 11:03:07;;;;;;;21.95;13.68;;;;;;;20.82;45.69;101336.08;1780427;80;21032;-71
2021/10/29 11:05:50;;;;;;;21.82;14.70;;;;;;;21.35;43.45;101334.60;1758601;80;21017;-74
2021/10/29 11:10:59;;;;;;;21.55;14.80;;;;;;;21.76;42.98;101325.73;1759415;79;21489;-71
2021/10/29 11:13:46;;;;;;;21.68;13.70;;;;;;;22.09;41.81;101322.67;1767959;80;21045;-72
2021/10/29 11:16:36;;;;;;;24.92;14.07;;;;;;;22.48;41.36;101329.03;1757209;80;21029;-73
2021/10/29 11:19:13;;;;;;;19.85;14.20;;;;;;;23.00;40.18;101327.27;1758120;80;21013;-72
2021/10/29 11:21:36;;;;;;;26.30;16.77;;;;;;;23.56;38.95;101322.36;1759921;80;21036;-73
2021/10/29 11:24:08;;;;;;;23.42;14.63;;;;;;;24.04;37.90;101325.13;1759629;80;21135;-74
2021/10/29 11:26:40;;;;;;;21.90;14.83;;;;;;;24.22;37.28;101312.58;1762517;80;28269;-74
2021/10/29 11:29:07;;;;;;;18.20;11.95;;;;;;;24.18;36.69;101320.51;1763627;80;21072;-73
2021/10/29 11:31:45;;;;;;;15.53;10.05;;;;;;;24.19;36.76;101322.24;1756230;80;21069;-70
2021/10/29 11:34:14;;;;;;;9.48;6.03;;;;;;;23.81;36.44;101321.45;1757079;80;21107;-73
2021/10/29 11:36:46;;;;;;;9.73;6.58;;;;;;;23.39;37.30;101321.37;1754227;79;21087;-70
2021/10/29 11:39:14;;;;;;;9.25;6.22;;;;;;;22.84;37.50;101322.07;1763172;80;21056;-71
2021/10/29 11:41:44;;;;;;;13.72;7.47;;;;;;;22.19;39.38;101322.42;1753980;80;21100;-72
2021/10/29 11:44:22;;;;;;;11.73;8.33;;;;;;;21.89;38.91;101322.63;1741139;80;21047;-71
2021/10/29 11:46:49;;;;;;;15.28;9.25;;;;;;;21.66;39.16;101332.66;1754284;80;21010;-71
2021/10/29 11:49:19;;;;;;;15.18;9.53;;;;;;;21.42;40.07;101332.39;1742490;80;21072;-73
2021/10/29 11:51:46;;;;;;;16.07;10.13;;;;;;;21.09;40.95;101331.70;1755881;80;21076;-71
2021/10/29 11:54:24;;;;;;;16.10;9.65;;;;;;;20.85;41.53;101329.22;1750064;80;21092;-71
2021/10/29 12:07:22;;;;;;;22.95;10.05;;;;;;;20.94;43.19;101330.00;1747983;80;21033;-74
2021/10/29 12:10:03;;;;;;;17.87;8.83;;;;;;;20.74;42.62;101324.03;1750955;80;21072;-72
2021/10/29 12:12:33;;;;;;;19.42;8.65;;;;;;;20.51;42.94;101324.53;1755931;80;21012;-71
2021/10/29 12:15:16;;;;;;;15.85;8.68;;;;;;;20.32;43.27;101325.63;1722677;82;21605;-72
2021/10/29 12:20:18;;;;;;;20.65;10.10;;;;;;;20.02;44.11;101326.08;1747429;80;21081;-72
2021/10/29 12:22:54;;;;;;;15.23;8.68;;;;;;;19.81;44.65;101325.02;1747998;80;21057;-75
2021/10/29 12:30:36;;;;;;;14.70;8.15;;;;;;;19.34;45.76;101327.14;1734225;80;21170;-71
2021/10/29 12:51:52;;;;;;;19.23;9.65;;;;;;;18.76;48.46;101312.89;1749034;82;21056;-72
2021/10/29 12:53:05;;;;;;;25.50;12.33;;;;;;;18.39;49.45;101312.13;1768414;80;21499;-71
2021/10/29 13:03:42;;;;;;;20.80;9.40;;;;;;;17.63;51.29;101304.75;1781066;80;21570;-79
2021/10/29 13:06:09;;;;;;;23.07;9.90;;;;;;;17.54;51.62;101308.71;1756924;80;21025;-73
2021/10/29 13:08:38;;;;;;;27.17;9.90;;;;;;;17.52;52.00;101307.92;1776893;80;21994;-73
2021/10/29 13:11:06;;;;;;;36.10;14.87;;;;;;;17.45;52.42;101306.48;1754790;80;21316;-72
2021/10/29 13:13:39;;;;;;;25.52;12.82;;;;;;;17.33;52.72;101310.11;1760805;80;21084;-74
2021/10/29 13:16:07;;;;;;;24.67;12.25;;;;;;;17.17;53.08;101307.77;1767575;80;21048;-73
2021/10/29 13:18:43;;;;;;;28.12;13.13;;;;;;;17.01;53.61;101303.59;1749852;82;21017;-74
2021/10/29 13:26:17;;;;;;;52.53;22.85;;;;;;;16.61;54.71;101301.80;1764336;79;22237;-73
2021/10/29 13:36:42;;;;;;;38.50;13.20;;;;;;;16.31;56.54;101311.05;1758873;80;21088;-74
2021/10/29 13:53:04;;;;;;;29.12;10.45;;;;;;;15.90;60.49;101304.31;1758789;80;21044;-74
2021/10/29 13:58:16;;;;;;;24.87;10.93;;;;;;;15.78;59.90;101308.80;1718420;82;21084;-73
2021/10/29 14:30:30;;;;;;;30.75;14.23;;;;;;;14.40;64.73;101301.45;1768487;80;21337;-75
2021/10/29 14:35:31;;;;;;;35.08;12.90;;;;;;;14.04;67.17;101300.89;1758302;80;21035;-73
2021/10/29 14:38:02;;;;;;;32.53;12.70;;;;;;;13.89;67.45;101295.62;1761146;80;21068;-75
2021/10/29 14:40:34;;;;;;;29.48;12.60;;;;;;;13.73;68.53;101308.94;1767031;80;22147;-76
2021/10/29 14:43:09;;;;;;;29.90;12.18;;;;;;;13.56;68.93;101300.20;1749794;80;22223;-73
2021/10/29 14:45:45;;;;;;;39.95;11.93;;;;;;;13.37;69.42;101301.23;1747303;82;21048;-75
2021/10/29 15:03:51;;;;;;;49.93;23.15;;;;;;;12.41;74.84;101311.36;1780812;80;21354;-76
2021/10/29 15:15:29;;;;;;;69.92;29.95;;;;;;;11.92;77.25;101314.77;1749450;80;21062;-74
2021/10/29 15:16:50;;;;;;;69.72;32.48;;;;;;;11.81;78.30;101320.70;1750828;80;21024;-74